createdAt,value
2023-02-28T00:02:43.969Z,9.80
2023-02-28T00:05:33.666Z,9.87
2023-02-28T00:08:22.979Z,10.23
2023-02-28T00:11:14.695Z,9.53
2023-02-28T00:14:05.566Z,9.53
2023-02-28T00:16:54.859Z,9.90
2023-02-28T00:19:44.135Z,9.73
2023-02-28T00:22:33.664Z,9.83
2023-02-28T00:25:26.269Z,9.90
2023-02-28T00:28:15.570Z,9.80
2023-02-28T00:31:06.808Z,10.10
2023-02-28T00:33:56.187Z,9.83
2023-02-28T00:36:47.242Z,9.60
2023-02-28T00:39:38.230Z,10.07
2023-02-28T00:42:27.919Z,10.10
2023-02-28T00:45:17.555Z,9.80
2023-02-28T00:48:08.506Z,9.90
2023-02-28T00:50:57.823Z,9.80
2023-02-28T00:53:48.137Z,10.03
2023-02-28T00:56:40.195Z,9.60
2023-02-28T00:59:29.635Z,9.60
2023-02-28T01:02:20.876Z,9.63
2023-02-28T01:05:12.545Z,10.10
2023-02-28T01:08:01.883Z,9.47
2023-02-28T01:10:51.248Z,9.30
2023-02-28T01:13:40.757Z,9.83
2023-02-28T01:16:30.691Z,9.53
2023-02-28T01:19:20.318Z,9.33
2023-02-28T01:22:11.086Z,9.70
2023-02-28T01:25:00.420Z,9.90
2023-02-28T01:27:49.711Z,9.47
2023-02-28T01:30:39.160Z,9.20
2023-02-28T01:33:29.662Z,9.80
2023-02-28T01:36:21.128Z,10.00
2023-02-28T01:39:11.768Z,9.50
2023-02-28T01:42:01.072Z,10.17
2023-02-28T01:45:16.950Z,9.80
2023-02-28T01:48:09.925Z,10.07
2023-02-28T01:51:03.602Z,9.90
2023-02-28T01:53:59.809Z,10.00
2023-02-28T01:56:53.611Z,9.90
2023-02-28T01:59:49.641Z,9.27
2023-02-28T02:02:40.135Z,9.80
2023-02-28T02:05:33.009Z,10.10
2023-02-28T02:08:25.804Z,9.97
2023-02-28T02:11:20.324Z,9.97
2023-02-28T02:14:30.804Z,10.20
2023-02-28T02:17:31.500Z,9.77
2023-02-28T02:21:21.339Z,9.90
2023-02-28T02:24:59.809Z,10.10
2023-02-28T02:28:33.842Z,10.17
2023-02-28T02:32:01.321Z,10.00
2023-02-28T02:35:01.367Z,9.70
2023-02-28T02:37:59.280Z,9.50
2023-02-28T02:41:00.038Z,9.80
2023-02-28T02:43:53.750Z,9.97
2023-02-28T02:46:46.889Z,9.83
2023-02-28T02:49:39.017Z,9.73
2023-02-28T02:52:36.742Z,10.17
2023-02-28T02:55:28.174Z,9.97
2023-02-28T02:58:21.231Z,10.60
2023-02-28T03:01:15.790Z,10.10
2023-02-28T03:04:10.753Z,9.53
2023-02-28T03:07:01.365Z,10.03
2023-02-28T03:09:58.392Z,10.47
2023-02-28T03:13:22.322Z,10.10
2023-02-28T03:16:38.766Z,10.10
2023-02-28T03:19:47.614Z,10.27
2023-02-28T03:22:53.527Z,10.20
2023-02-28T03:25:58.740Z,9.93
2023-02-28T03:28:57.929Z,10.07
2023-02-28T03:31:52.598Z,10.30
2023-02-28T03:34:48.204Z,10.13
2023-02-28T03:37:41.963Z,10.50
2023-02-28T03:40:35.615Z,10.43
2023-02-28T03:43:35.793Z,10.10
2023-02-28T03:46:29.781Z,10.27
2023-02-28T03:49:23.019Z,10.70
2023-02-28T03:52:12.490Z,10.47
2023-02-28T03:55:10.149Z,10.63
2023-02-28T03:58:04.207Z,10.37
2023-02-28T04:01:08.576Z,10.47
2023-02-28T04:03:58.103Z,10.80
2023-02-28T04:06:47.829Z,10.47
2023-02-28T04:09:37.569Z,10.23
2023-02-28T04:12:26.995Z,10.43
2023-02-28T04:15:16.630Z,10.27
2023-02-28T04:18:08.126Z,9.93
2023-02-28T04:20:57.402Z,10.37
2023-02-28T04:23:46.723Z,10.50
2023-02-28T04:26:38.765Z,10.37
2023-02-28T04:29:30.337Z,11.10
2023-02-28T04:32:19.724Z,10.83
2023-02-28T04:35:12.445Z,10.40
2023-02-28T04:38:01.884Z,10.70
2023-02-28T04:40:51.159Z,10.53
2023-02-28T04:43:40.615Z,10.70
2023-02-28T04:46:30.103Z,10.40
2023-02-28T04:49:19.605Z,11.07
2023-02-28T04:52:11.380Z,10.90
2023-02-28T04:55:00.908Z,10.40
2023-02-28T04:57:50.227Z,10.60
2023-02-28T05:00:39.756Z,11.03
2023-02-28T05:03:29.057Z,10.73
2023-02-28T05:06:19.620Z,10.87
2023-02-28T05:09:13.268Z,10.97
2023-02-28T05:12:02.646Z,11.07
2023-02-28T05:14:52.041Z,11.20
2023-02-28T05:17:41.359Z,11.40
2023-02-28T05:20:30.933Z,11.30
2023-02-28T05:23:22.142Z,11.70
2023-02-28T05:26:12.836Z,11.20
2023-02-28T05:29:02.236Z,10.93
2023-02-28T05:31:51.947Z,11.37
2023-02-28T05:34:41.913Z,11.63
2023-02-28T05:37:31.270Z,11.13
2023-02-28T05:40:21.448Z,11.00
2023-02-28T05:43:14.040Z,11.43
2023-02-28T05:46:06.535Z,11.30
2023-02-28T05:48:57.072Z,11.27
2023-02-28T05:51:46.438Z,10.80
2023-02-28T05:54:36.079Z,11.60
2023-02-28T05:57:25.801Z,11.40
2023-02-28T06:00:18.869Z,11.40
2023-02-28T06:03:08.268Z,11.27
2023-02-28T06:05:58.093Z,12.13
2023-02-28T06:08:47.471Z,11.93
2023-02-28T06:11:36.882Z,11.37
2023-02-28T06:14:26.378Z,11.50
2023-02-28T06:17:17.167Z,11.90
2023-02-28T06:20:08.202Z,11.77
2023-02-28T06:22:59.540Z,11.43
2023-02-28T06:25:50.460Z,11.87
2023-02-28T06:28:39.819Z,11.70
2023-02-28T06:31:30.518Z,12.40
2023-02-28T06:34:21.481Z,12.70
2023-02-28T06:37:10.788Z,12.50
2023-02-28T06:40:00.685Z,11.67
2023-02-28T06:42:50.048Z,11.23
2023-02-28T06:45:39.352Z,11.60
2023-02-28T06:48:29.609Z,12.17
2023-02-28T06:51:23.299Z,13.27
2023-02-28T06:54:13.382Z,13.00
2023-02-28T06:57:02.726Z,12.57
2023-02-28T06:59:52.088Z,12.60
2023-02-28T07:02:41.397Z,12.50
2023-02-28T07:05:30.712Z,12.90
2023-02-28T07:08:21.584Z,12.23
2023-02-28T07:11:11.203Z,12.37
2023-02-28T07:14:00.587Z,12.07
2023-02-28T07:16:51.342Z,12.13
2023-02-28T07:19:40.906Z,12.70
2023-02-28T07:22:30.662Z,12.80
2023-02-28T07:25:21.364Z,13.67
2023-02-28T07:28:10.636Z,13.10
2023-02-28T07:31:05.651Z,13.30
2023-02-28T07:33:55.190Z,13.50
2023-02-28T07:36:44.474Z,13.60
2023-02-28T07:39:33.868Z,14.30
2023-02-28T07:42:24.578Z,14.67
2023-02-28T07:45:14.411Z,14.20
2023-02-28T07:48:04.112Z,14.53
2023-02-28T07:50:57.537Z,14.70
2023-02-28T07:53:47.001Z,15.10
2023-02-28T07:56:36.380Z,14.50
2023-02-28T07:59:27.494Z,14.07
2023-02-28T08:02:18.920Z,14.23
2023-02-28T08:05:09.567Z,14.60
2023-02-28T08:07:59.174Z,13.93
2023-02-28T08:10:48.495Z,14.27
2023-02-28T08:13:37.825Z,13.70
2023-02-28T08:16:28.660Z,13.50
2023-02-28T08:19:17.961Z,13.37
2023-02-28T08:22:07.414Z,13.90
2023-02-28T08:24:56.772Z,12.70
2023-02-28T08:27:46.580Z,13.00
2023-02-28T08:30:35.965Z,13.37
2023-02-28T08:33:29.453Z,13.30
2023-02-28T08:36:19.097Z,13.00
2023-02-28T08:39:08.868Z,12.37
2023-02-28T08:42:07.128Z,12.23
2023-02-28T08:44:57.527Z,12.50
2023-02-28T08:47:46.884Z,12.40
2023-02-28T08:50:37.585Z,12.93
2023-02-28T08:53:27.110Z,13.40
2023-02-28T08:56:19.734Z,12.40
2023-02-28T08:59:10.920Z,13.03
2023-02-28T09:02:00.300Z,12.40
2023-02-28T09:04:52.416Z,12.63
2023-02-28T09:07:43.315Z,12.83
2023-02-28T09:10:32.691Z,13.40
2023-02-28T09:13:22.873Z,12.70
2023-02-28T09:16:15.770Z,12.87
2023-02-28T09:19:05.263Z,12.73
2023-02-28T09:21:54.614Z,12.67
2023-02-28T09:24:46.126Z,12.40
2023-02-28T09:27:35.491Z,14.30
2023-02-28T09:30:25.083Z,13.77
2023-02-28T09:33:14.904Z,13.87
2023-02-28T09:36:06.110Z,13.37
2023-02-28T09:38:55.442Z,13.80
2023-02-28T09:41:51.591Z,12.83
2023-02-28T09:44:46.148Z,12.87
2023-02-28T09:47:39.000Z,12.43
2023-02-28T09:50:36.466Z,13.17
2023-02-28T09:53:34.863Z,13.17
2023-02-28T09:56:28.805Z,13.83
2023-02-28T09:59:34.808Z,13.30
2023-02-28T10:02:51.898Z,12.90
2023-02-28T10:05:45.676Z,13.13
2023-02-28T10:08:43.694Z,13.00
2023-02-28T10:11:36.427Z,13.00
2023-02-28T10:14:30.796Z,12.40
2023-02-28T10:17:24.547Z,12.43
2023-02-28T10:20:20.848Z,12.07
2023-02-28T10:23:20.001Z,13.30
2023-02-28T10:26:17.095Z,11.90
2023-02-28T10:29:06.461Z,12.90
2023-02-28T10:31:57.229Z,12.60
2023-02-28T10:34:46.813Z,12.83
2023-02-28T10:37:39.640Z,12.70
2023-02-28T10:40:36.566Z,12.40
2023-02-28T10:43:26.662Z,12.20
2023-02-28T10:46:26.998Z,13.63
2023-02-28T10:49:23.979Z,13.03
2023-02-28T10:52:13.409Z,12.90
2023-02-28T10:55:22.903Z,12.57
2023-02-28T10:58:24.655Z,12.63
2023-02-28T11:01:17.548Z,12.07
2023-02-28T11:04:22.969Z,11.80
2023-02-28T11:07:23.154Z,13.03
2023-02-28T11:10:24.993Z,11.70
2023-02-28T11:13:21.875Z,11.90
2023-02-28T11:16:14.920Z,12.57
2023-02-28T11:19:05.609Z,12.60
2023-02-28T11:22:01.146Z,12.10
2023-02-28T11:24:53.988Z,12.90
2023-02-28T11:27:50.569Z,12.20
2023-02-28T11:30:41.784Z,12.47
2023-02-28T11:33:33.845Z,12.63
2023-02-28T11:36:26.811Z,12.70
2023-02-28T11:39:19.749Z,12.97
2023-02-28T11:42:31.469Z,12.97
2023-02-28T11:45:46.436Z,12.63
2023-02-28T11:48:47.174Z,11.57
2023-02-28T11:51:51.910Z,12.00
2023-02-28T11:55:13.496Z,13.17
2023-02-28T11:58:19.319Z,13.10
2023-02-28T12:01:35.670Z,12.77
2023-02-28T12:04:38.391Z,12.57
2023-02-28T12:07:38.803Z,12.53
2023-02-28T12:10:31.704Z,13.47
2023-02-28T12:13:29.073Z,13.07
2023-02-28T12:16:52.832Z,13.10
2023-02-28T12:19:51.723Z,12.30
2023-02-28T12:22:49.500Z,12.20
2023-02-28T12:25:54.668Z,11.67
2023-02-28T12:28:48.847Z,12.13
2023-02-28T12:31:42.644Z,12.73
2023-02-28T12:34:38.771Z,13.27
2023-02-28T12:37:35.063Z,12.73
2023-02-28T12:40:28.268Z,12.63
2023-02-28T12:43:21.025Z,13.03
2023-02-28T12:46:17.325Z,12.03
2023-02-28T12:49:13.109Z,12.60
2023-02-28T12:52:04.280Z,12.80
2023-02-28T12:54:59.221Z,12.07
2023-02-28T12:57:55.839Z,12.40
2023-02-28T13:01:09.063Z,13.13
2023-02-28T13:04:46.651Z,12.40
2023-02-28T13:08:06.916Z,12.50
2023-02-28T13:10:56.869Z,12.63
2023-02-28T13:13:47.843Z,13.00
2023-02-28T13:17:01.225Z,13.90
2023-02-28T13:20:01.015Z,13.03
2023-02-28T13:22:53.619Z,13.00
2023-02-28T13:25:55.714Z,12.20
2023-02-28T13:29:30.400Z,13.33
2023-02-28T13:32:39.767Z,13.23
2023-02-28T13:35:46.204Z,13.07
2023-02-28T13:38:41.628Z,12.17
2023-02-28T13:41:49.600Z,12.50
2023-02-28T13:45:28.754Z,12.57
2023-02-28T13:48:22.895Z,12.70
2023-02-28T13:51:42.874Z,12.70
2023-02-28T13:54:48.188Z,13.20
2023-02-28T13:58:00.318Z,12.10
2023-02-28T14:01:15.381Z,12.07
2023-02-28T14:04:54.829Z,12.10
2023-02-28T14:07:49.278Z,11.97
2023-02-28T14:10:45.845Z,11.50
2023-02-28T14:13:47.971Z,12.50
2023-02-28T14:16:45.785Z,12.10
2023-02-28T14:19:39.836Z,12.40
2023-02-28T14:22:53.791Z,12.10
2023-02-28T14:25:53.914Z,11.67
2023-02-28T14:29:02.509Z,12.20
2023-02-28T14:32:00.729Z,11.60
2023-02-28T14:37:55.980Z,12.50
2023-02-28T14:40:45.488Z,12.57
2023-02-28T14:43:35.034Z,12.30
2023-02-28T14:46:29.198Z,12.20
2023-02-28T14:49:23.729Z,12.50
2023-02-28T14:52:22.168Z,12.13
2023-02-28T14:55:17.630Z,12.00
2023-02-28T14:58:08.994Z,12.30
2023-02-28T15:01:01.199Z,12.53
2023-02-28T15:03:59.460Z,12.17
2023-02-28T15:06:48.867Z,12.10
2023-02-28T15:09:40.168Z,12.10
2023-02-28T15:12:29.654Z,12.73
2023-02-28T15:15:25.318Z,12.33
2023-02-28T15:18:33.166Z,12.67
2023-02-28T15:21:25.790Z,12.23
2023-02-28T15:24:25.252Z,11.73
2023-02-28T15:27:23.074Z,11.70
2023-02-28T15:30:20.289Z,11.83
2023-02-28T15:33:22.562Z,12.80
2023-02-28T15:36:20.403Z,11.77
2023-02-28T15:39:23.432Z,12.07
2023-02-28T15:42:15.200Z,12.97
2023-02-28T15:45:05.265Z,13.17
2023-02-28T15:47:56.142Z,12.80
2023-02-28T15:50:45.763Z,12.07
2023-02-28T15:53:38.652Z,12.23
2023-02-28T15:56:30.440Z,11.90
2023-02-28T15:59:25.582Z,12.70
2023-02-28T16:02:20.826Z,11.87
2023-02-28T16:05:31.549Z,13.43
2023-02-28T16:08:20.969Z,12.63
2023-02-28T16:11:11.932Z,12.60
2023-02-28T16:14:01.341Z,12.17
2023-02-28T16:16:57.376Z,13.00
2023-02-28T16:19:46.684Z,12.00
2023-02-28T16:22:36.023Z,11.83
2023-02-28T16:25:36.090Z,11.97
2023-02-28T16:28:32.144Z,11.80
2023-02-28T16:31:21.996Z,12.13
2023-02-28T16:34:12.747Z,12.53
2023-02-28T16:37:02.112Z,12.20
2023-02-28T16:39:52.088Z,12.47
2023-02-28T16:42:42.721Z,12.40
2023-02-28T16:45:32.331Z,12.33
2023-02-28T16:48:21.643Z,12.60
2023-02-28T16:51:15.092Z,12.10
2023-02-28T16:54:04.806Z,12.80
2023-02-28T16:56:54.246Z,12.20
2023-02-28T16:59:43.710Z,12.30
2023-02-28T17:02:33.228Z,12.50
2023-02-28T17:05:23.706Z,12.07
2023-02-28T17:08:14.434Z,12.50
2023-02-28T17:11:03.900Z,12.27
2023-02-28T17:13:54.868Z,12.70
2023-02-28T17:16:45.118Z,12.17
2023-02-28T17:19:34.976Z,11.70
2023-02-28T17:22:24.286Z,12.00
2023-02-28T17:25:14.964Z,12.23
2023-02-28T17:28:04.423Z,12.60
2023-02-28T17:30:53.783Z,12.07
2023-02-28T17:33:43.218Z,12.43
2023-02-28T17:36:34.562Z,12.37
2023-02-28T17:39:25.303Z,13.57
2023-02-28T17:42:16.006Z,12.57
2023-02-28T17:45:06.189Z,12.57
2023-02-28T17:47:55.666Z,12.20
2023-02-28T17:50:45.057Z,13.90
2023-02-28T17:53:34.359Z,12.30
2023-02-28T17:56:25.564Z,12.20
2023-02-28T17:59:16.557Z,12.60
2023-02-28T18:02:06.032Z,12.70
2023-02-28T18:04:55.433Z,12.97
2023-02-28T18:07:44.993Z,12.43
2023-02-28T18:10:34.489Z,12.90
2023-02-28T18:13:23.806Z,12.83
2023-02-28T18:16:14.925Z,13.87
2023-02-28T18:19:04.538Z,12.80
2023-02-28T18:21:55.379Z,12.73
2023-02-28T18:24:44.752Z,12.70
2023-02-28T18:27:34.160Z,12.80
2023-02-28T18:30:24.031Z,13.23
2023-02-28T18:33:14.769Z,13.07
2023-02-28T18:36:04.240Z,12.77
2023-02-28T18:38:53.804Z,14.17
2023-02-28T18:41:43.282Z,14.77
2023-02-28T18:44:32.688Z,15.03
2023-02-28T18:47:21.988Z,15.07
2023-02-28T18:50:13.812Z,14.60
2023-02-28T18:53:03.448Z,14.87
2023-02-28T18:55:52.797Z,14.60
2023-02-28T18:58:43.028Z,14.77
2023-02-28T19:01:33.561Z,14.10
2023-02-28T19:04:23.093Z,14.90
2023-02-28T19:07:14.774Z,14.80
2023-02-28T19:10:04.265Z,14.43
2023-02-28T19:12:53.719Z,14.80
2023-02-28T19:15:43.033Z,14.93
2023-02-28T19:18:32.845Z,16.00
2023-02-28T19:21:24.824Z,15.47
2023-02-28T19:24:15.458Z,15.30
2023-02-28T19:27:04.823Z,16.10
2023-02-28T19:29:54.651Z,16.50
2023-02-28T19:32:43.965Z,16.47
2023-02-28T19:35:33.374Z,16.43
2023-02-28T19:38:23.149Z,15.53
2023-02-28T19:41:16.224Z,15.70
2023-02-28T19:44:05.852Z,26.97
2023-02-28T19:46:55.481Z,20.50
2023-02-28T19:49:44.851Z,19.43
2023-02-28T19:52:34.407Z,18.63
2023-02-28T19:55:24.152Z,17.40
2023-02-28T19:58:14.855Z,17.03
2023-02-28T20:01:10.190Z,16.50
2023-02-28T20:03:59.658Z,16.40
2023-02-28T20:06:49.045Z,15.60
2023-02-28T20:09:38.494Z,15.33
2023-02-28T20:12:27.964Z,15.40
2023-02-28T20:15:18.818Z,15.47
2023-02-28T20:18:08.102Z,15.30
2023-02-28T20:20:57.475Z,15.97
2023-02-28T20:23:48.678Z,15.40
2023-02-28T20:26:38.281Z,14.80
2023-02-28T20:29:27.632Z,15.40
2023-02-28T20:32:18.320Z,15.47
2023-02-28T20:35:11.623Z,16.17
2023-02-28T20:38:01.254Z,15.50
2023-02-28T20:40:50.633Z,15.80
2023-02-28T20:43:40.893Z,15.60
2023-02-28T20:46:32.050Z,15.90
2023-02-28T20:49:23.084Z,16.07
2023-02-28T20:52:12.490Z,15.97
2023-02-28T20:55:01.752Z,15.30
2023-02-28T20:57:51.065Z,16.33
2023-02-28T21:00:40.687Z,16.50
2023-02-28T21:03:30.340Z,15.50
2023-02-28T21:06:23.572Z,14.90
2023-02-28T21:09:15.197Z,14.50
2023-02-28T21:12:05.963Z,15.27
2023-02-28T21:14:55.233Z,14.33
2023-02-28T21:17:47.561Z,14.70
2023-02-28T21:20:36.869Z,14.93
2023-02-28T21:23:27.569Z,14.07
2023-02-28T21:26:20.170Z,14.53
2023-02-28T21:29:09.662Z,13.77
2023-02-28T21:31:59.459Z,13.97
2023-02-28T21:34:48.806Z,13.87
2023-02-28T21:37:39.443Z,14.00
2023-02-28T21:40:30.160Z,13.40
2023-02-28T21:43:19.517Z,13.30
2023-02-28T21:46:11.538Z,13.60
2023-02-28T21:49:00.889Z,14.40
2023-02-28T21:51:50.195Z,13.70
2023-02-28T21:54:39.582Z,13.73
2023-02-28T21:57:30.399Z,13.47
2023-02-28T22:00:21.509Z,12.70
2023-02-28T22:03:10.852Z,13.33
2023-02-28T22:06:00.234Z,13.27
2023-02-28T22:08:53.869Z,13.10
2023-02-28T22:11:43.237Z,13.03
2023-02-28T22:14:33.995Z,13.20
2023-02-28T22:17:23.309Z,13.30
2023-02-28T22:20:13.749Z,13.77
2023-02-28T22:23:03.049Z,13.60
2023-02-28T22:25:53.716Z,13.90
2023-02-28T22:28:43.405Z,12.90
2023-02-28T22:31:36.581Z,13.10
2023-02-28T22:34:26.004Z,13.70
2023-02-28T22:37:15.515Z,13.00
2023-02-28T22:40:05.645Z,12.90
2023-02-28T22:42:54.977Z,14.00
2023-02-28T22:45:44.300Z,13.93
2023-02-28T22:48:36.298Z,12.73
2023-02-28T22:51:27.062Z,13.50
2023-02-28T22:54:16.479Z,13.27
2023-02-28T22:57:05.802Z,13.33
2023-02-28T22:59:55.142Z,13.13
2023-02-28T23:02:45.229Z,13.03
2023-02-28T23:05:35.969Z,13.40
2023-02-28T23:08:25.348Z,12.27
2023-02-28T23:11:21.560Z,12.37
2023-02-28T23:14:12.856Z,13.07
2023-02-28T23:17:02.171Z,13.10
2023-02-28T23:19:51.570Z,13.20
2023-02-28T23:22:50.667Z,13.20
2023-02-28T23:25:41.994Z,12.80
2023-02-28T23:28:31.380Z,12.13
2023-02-28T23:31:21.193Z,13.03
2023-02-28T23:34:11.195Z,13.10
2023-02-28T23:37:02.889Z,13.33
2023-02-28T23:39:53.850Z,12.80
2023-02-28T23:42:44.600Z,12.93
2023-02-28T23:45:33.942Z,13.20
2023-02-28T23:48:23.334Z,13.37
2023-02-28T23:51:16.846Z,12.80
2023-02-28T23:54:06.783Z,13.40
2023-02-28T23:56:57.488Z,12.73
2023-02-28T23:59:47.039Z,12.53
